This is the latest recevied weather packets stored in our database for station/object F8COD-13. If no packets are shown the sender has not sent any weather packets the latest 10 day(s).
| Time | Temp. | Humidity | Pressure | Rain* | Wind** | Luminosity | Snow |
|---|---|---|---|---|---|---|---|
| 1777299018 | 23.33° C | 35% | 1019.6 hPa | 0 mm | - | - | - |
| 1777297818 | 23.33° C | 36% | 1019.7 hPa | 0 mm | - | - | - |
| 1777295417 | 23.33° C | 34% | 1020 hPa | 0 mm | - | - | - |
| 1777292418 | 22.22° C | 39% | 1020.4 hPa | 0 mm | - | - | - |
| 1777291238 | 22.78° C | 40% | 1020.6 hPa | 0 mm | - | - | - |
| 1777287018 | 20.56° C | 45% | 1021.3 hPa | 0 mm | - | - | - |
| 1777286418 | 20° C | 43% | 1021.3 hPa | 0 mm | - | - | - |
| 1777282817 | 19.44° C | 48% | 1021.6 hPa | 0 mm | - | - | - |
| 1777279217 | 17.78° C | 51% | 1021.9 hPa | 0 mm | - | - | - |
| 1777278617 | 17.78° C | 53% | 1021.8 hPa | 0 mm | - | - | - |
| 1777275617 | 16.11° C | 57% | 1021.8 hPa | 0 mm | - | - | - |
| 1777274417 | 15.56° C | 61% | 1021.9 hPa | 0 mm | - | - | - |
| 1777273817 | 15° C | 64% | 1021.8 hPa | 0 mm | - | - | - |
| 1777266637 | 7.22° C | 86% | 1021.5 hPa | 0 mm | - | - | - |
| 1777261817 | 7.78° C | 83% | 1021.4 hPa | 0 mm | - | - | - |
| 1777261217 | 7.78° C | 83% | 1021.4 hPa | 0 mm | - | - | - |
| 1777258217 | 8.33° C | 81% | 1021.3 hPa | 0 mm | - | - | - |
| 1777257017 | 8.89° C | 81% | 1021.3 hPa | 0 mm | - | - | - |
| 1777255817 | 8.89° C | 80% | 1021.3 hPa | 0 mm | - | - | - |
| 1777254637 | 8.89° C | 78% | 1021.5 hPa | 0 mm | - | - | - |
| 1777254016 | 8.89° C | 77% | 1021.6 hPa | 0 mm | - | - | - |
| 1777245016 | 13.33° C | 65% | 1021.9 hPa | 0 mm | - | - | - |
| 1777239017 | 15.56° C | 51% | 1021.8 hPa | 0 mm | - | - | - |
| 1777237217 | 16.67° C | 46% | 1021.7 hPa | 0 mm | - | - | - |
| 1777236617 | 16.67° C | 44% | 1021.7 hPa | 0 mm | - | - | - |
* Rain latest hour (hover to see other rain measurements)
** Current wind speed in m/s (hover to see current wind gust speed)